createdAt,value
2019-05-25T00:00:19.185Z,99.90
2019-05-25T00:02:53.012Z,99.90
2019-05-25T00:05:26.759Z,99.90
2019-05-25T00:08:04.398Z,99.90
2019-05-25T00:10:38.166Z,99.90
2019-05-25T00:13:12.377Z,99.90
2019-05-25T00:15:46.046Z,99.90
2019-05-25T00:18:19.788Z,99.90
2019-05-25T00:20:53.646Z,99.90
2019-05-25T00:23:28.673Z,99.90
2019-05-25T00:26:02.863Z,99.90
2019-05-25T00:28:36.576Z,99.90
2019-05-25T00:31:10.240Z,99.90
2019-05-25T00:33:44.035Z,99.90
2019-05-25T00:36:18.626Z,99.90
2019-05-25T00:38:53.381Z,99.90
2019-05-25T00:41:27.093Z,99.90
2019-05-25T00:44:00.789Z,99.90
2019-05-25T00:46:34.359Z,99.90
2019-05-25T00:49:08.178Z,99.90
2019-05-25T00:51:42.351Z,99.90
2019-05-25T00:54:27.432Z,99.90
2019-05-25T00:56:52.956Z,99.90
2019-05-25T00:59:26.763Z,99.90
2019-05-25T01:02:00.559Z,99.90
2019-05-25T01:04:34.362Z,99.90
2019-05-25T01:07:08.044Z,99.90
2019-05-25T01:09:41.755Z,99.90
2019-05-25T01:12:15.946Z,99.90
2019-05-25T01:14:50.597Z,99.90
2019-05-25T01:17:24.217Z,99.90
2019-05-25T01:19:58.025Z,99.90
2019-05-25T01:22:32.135Z,99.90
2019-05-25T01:25:07.325Z,99.90
2019-05-25T01:27:41.184Z,99.90
2019-05-25T01:30:17.462Z,99.90
2019-05-25T01:32:51.187Z,99.90
2019-05-25T01:35:25.998Z,99.90
2019-05-25T01:38:01.112Z,99.90
2019-05-25T01:40:34.893Z,99.90
2019-05-25T01:43:08.707Z,99.90
2019-05-25T01:45:44.165Z,99.90
2019-05-25T01:48:17.979Z,99.90
2019-05-25T01:50:51.738Z,99.90
2019-05-25T01:53:25.568Z,99.90
2019-05-25T01:56:00.845Z,99.90
2019-05-25T01:58:35.842Z,99.90
2019-05-25T02:01:09.920Z,99.90
2019-05-25T02:03:43.632Z,99.90
2019-05-25T02:06:17.807Z,99.90
2019-05-25T02:08:53.632Z,99.90
2019-05-25T02:11:27.362Z,99.90
2019-05-25T02:14:01.089Z,99.90
2019-05-25T02:16:34.768Z,99.90
2019-05-25T02:19:08.510Z,99.90
2019-05-25T02:21:42.483Z,99.90
2019-05-25T02:24:17.087Z,99.90
2019-05-25T02:26:50.864Z,99.90
2019-05-25T02:29:24.587Z,99.90
2019-05-25T02:31:58.350Z,99.90
2019-05-25T02:34:32.664Z,99.90
2019-05-25T02:37:06.467Z,99.90
2019-05-25T02:39:42.087Z,99.90
2019-05-25T02:42:15.772Z,99.90
2019-05-25T02:44:50.495Z,99.90
2019-05-25T02:47:24.168Z,99.90
2019-05-25T02:49:57.864Z,99.90
2019-05-25T02:52:31.795Z,99.90
2019-05-25T02:55:09.211Z,99.90
2019-05-25T02:57:45.126Z,99.90
2019-05-25T03:00:21.751Z,99.90
2019-05-25T03:02:55.634Z,99.90
2019-05-25T03:05:29.371Z,99.90
2019-05-25T03:08:03.657Z,99.90
2019-05-25T03:10:39.056Z,99.90
2019-05-25T03:13:13.188Z,99.90
2019-05-25T03:15:46.992Z,99.90
2019-05-25T03:18:21.106Z,99.90
2019-05-25T03:20:54.998Z,99.90
2019-05-25T03:23:29.807Z,99.90
2019-05-25T03:26:03.555Z,99.90
2019-05-25T03:28:37.364Z,99.90
2019-05-25T03:31:11.575Z,99.90
2019-05-25T03:33:45.469Z,99.90
2019-05-25T03:36:19.286Z,99.90
2019-05-25T03:38:53.513Z,99.90
2019-05-25T03:41:27.572Z,99.90
2019-05-25T03:44:01.459Z,99.90
2019-05-25T03:46:36.286Z,99.90
2019-05-25T03:49:10.387Z,99.90
2019-05-25T03:51:44.551Z,99.90
2019-05-25T03:54:20.247Z,99.90
2019-05-25T03:56:53.874Z,99.90
2019-05-25T03:59:29.211Z,99.90
2019-05-25T04:02:03.017Z,99.90
2019-05-25T04:04:36.764Z,99.90
2019-05-25T04:07:10.541Z,99.90
2019-05-25T04:09:44.280Z,99.90
2019-05-25T04:12:18.046Z,99.90
2019-05-25T04:14:51.787Z,99.90
2019-05-25T04:17:25.649Z,99.90
2019-05-25T04:19:59.565Z,99.90
2019-05-25T04:22:33.235Z,99.90
2019-05-25T04:25:09.660Z,99.90
2019-05-25T04:27:43.477Z,99.90
2019-05-25T04:30:18.876Z,99.90
2019-05-25T04:32:54.235Z,99.90
2019-05-25T04:35:27.980Z,99.90
2019-05-25T04:38:01.683Z,99.90
2019-05-25T04:40:36.321Z,99.90
2019-05-25T04:43:10.012Z,99.90
2019-05-25T04:45:44.331Z,99.90
2019-05-25T04:48:18.311Z,99.90
2019-05-25T04:50:52.788Z,99.90
2019-05-25T04:53:26.477Z,99.90
2019-05-25T04:56:00.382Z,99.90
2019-05-25T04:58:34.087Z,99.90
2019-05-25T05:01:07.797Z,99.90
2019-05-25T05:03:42.195Z,99.90
2019-05-25T05:06:15.906Z,99.90
2019-05-25T05:08:51.357Z,99.90
2019-05-25T05:11:25.311Z,99.90
2019-05-25T05:14:00.903Z,99.90
2019-05-25T05:16:36.771Z,99.90
2019-05-25T05:19:10.887Z,99.90
2019-05-25T05:21:45.689Z,99.90
2019-05-25T05:24:19.421Z,99.90
2019-05-25T05:26:56.462Z,99.90
2019-05-25T05:29:31.516Z,99.90
2019-05-25T05:32:05.622Z,99.90
2019-05-25T05:34:39.321Z,99.90
2019-05-25T05:37:14.755Z,99.90
2019-05-25T05:39:49.123Z,99.90
2019-05-25T05:42:25.438Z,99.90
2019-05-25T05:45:00.325Z,99.90
2019-05-25T05:47:36.586Z,99.90
2019-05-25T05:50:12.084Z,99.90
2019-05-25T05:52:48.936Z,99.90
2019-05-25T05:55:27.536Z,99.90
2019-05-25T05:58:03.587Z,99.90
2019-05-25T06:00:38.436Z,99.90
2019-05-25T06:03:12.236Z,99.90
2019-05-25T06:05:45.965Z,99.90
2019-05-25T06:08:19.755Z,99.90
2019-05-25T06:10:53.454Z,99.90
2019-05-25T06:13:27.147Z,99.90
2019-05-25T06:16:00.955Z,99.90
2019-05-25T06:18:34.805Z,99.90
2019-05-25T06:21:08.563Z,99.90
2019-05-25T06:23:42.748Z,99.90
2019-05-25T06:26:16.448Z,99.90
2019-05-25T06:28:50.806Z,99.90
2019-05-25T06:31:24.669Z,99.90
2019-05-25T06:33:58.353Z,99.90
2019-05-25T06:36:35.935Z,99.90
2019-05-25T06:39:10.318Z,99.90
2019-05-25T06:41:45.378Z,99.90
2019-05-25T06:44:19.091Z,99.90
2019-05-25T06:46:52.866Z,99.90
2019-05-25T06:49:26.547Z,99.90
2019-05-25T06:52:00.257Z,99.90
2019-05-25T06:54:33.917Z,99.90
2019-05-25T06:57:09.416Z,99.90
2019-05-25T06:59:43.194Z,99.90
2019-05-25T07:02:16.905Z,99.90
2019-05-25T07:04:50.600Z,99.90
2019-05-25T07:07:24.270Z,99.90
2019-05-25T07:09:58.842Z,99.90
2019-05-25T07:12:32.524Z,99.90
2019-05-25T07:15:12.313Z,99.90
2019-05-25T07:17:45.926Z,99.90
2019-05-25T07:20:20.318Z,99.90
2019-05-25T07:22:54.205Z,99.90
2019-05-25T07:25:28.293Z,99.90
2019-05-25T07:28:02.453Z,99.90
2019-05-25T07:30:36.141Z,99.90
2019-05-25T07:33:10.415Z,99.90
2019-05-25T07:35:44.085Z,99.90
2019-05-25T07:38:17.882Z,99.90
2019-05-25T07:40:51.541Z,99.90
2019-05-25T07:43:25.267Z,99.90
2019-05-25T07:45:59.177Z,99.90
2019-05-25T07:48:32.896Z,99.90
2019-05-25T07:51:06.663Z,99.90
2019-05-25T07:53:40.376Z,99.90
2019-05-25T07:56:14.076Z,99.90
2019-05-25T07:58:47.825Z,99.90
2019-05-25T08:01:21.567Z,99.90
2019-05-25T08:03:55.729Z,99.90
2019-05-25T08:06:29.473Z,99.90
2019-05-25T08:09:05.297Z,99.90
2019-05-25T08:11:39.276Z,99.90
2019-05-25T08:14:12.946Z,99.90
2019-05-25T08:16:46.625Z,99.90
2019-05-25T08:19:20.428Z,99.90
2019-05-25T08:21:54.208Z,99.90
2019-05-25T08:24:27.898Z,99.90
2019-05-25T08:27:01.596Z,99.90
2019-05-25T08:29:35.455Z,99.90
2019-05-25T08:32:09.270Z,99.90
2019-05-25T08:34:42.843Z,99.90
2019-05-25T08:37:17.146Z,99.90
2019-05-25T08:39:50.929Z,99.90
2019-05-25T08:42:24.749Z,99.90
2019-05-25T08:44:58.406Z,99.90
2019-05-25T08:47:32.188Z,99.90
2019-05-25T08:50:08.367Z,99.90
2019-05-25T08:52:42.667Z,99.90
2019-05-25T08:55:17.035Z,99.90
2019-05-25T08:57:51.658Z,99.90
2019-05-25T09:00:26.408Z,99.90
2019-05-25T09:03:00.001Z,99.90
2019-05-25T09:05:33.768Z,99.90
2019-05-25T09:08:10.365Z,99.90
2019-05-25T09:10:44.034Z,99.90
2019-05-25T09:13:18.279Z,99.90
2019-05-25T09:15:51.913Z,99.90
2019-05-25T09:18:25.704Z,99.90
2019-05-25T09:20:59.873Z,99.90
2019-05-25T09:23:33.649Z,99.90
2019-05-25T09:26:07.239Z,99.90
2019-05-25T09:28:40.935Z,99.90
2019-05-25T09:31:14.680Z,99.90
2019-05-25T09:33:48.448Z,99.90
2019-05-25T09:36:22.119Z,99.90
2019-05-25T09:38:59.749Z,99.90
2019-05-25T09:41:38.956Z,99.90
2019-05-25T09:44:12.665Z,99.90
2019-05-25T09:46:53.917Z,99.90
2019-05-25T09:49:28.080Z,99.90
2019-05-25T09:52:01.968Z,99.90
2019-05-25T09:54:36.589Z,99.90
2019-05-25T09:57:12.128Z,99.90
2019-05-25T09:59:46.038Z,99.90
2019-05-25T10:05:00.083Z,99.90
2019-05-25T10:07:33.846Z,99.90
2019-05-25T10:10:14.813Z,99.90
2019-05-25T10:12:48.566Z,99.90
2019-05-25T10:15:22.296Z,99.90
2019-05-25T10:17:55.995Z,99.90
2019-05-25T10:20:33.599Z,99.90
2019-05-25T10:23:10.050Z,99.90
2019-05-25T10:25:44.298Z,99.90
2019-05-25T10:28:20.516Z,99.90
2019-05-25T10:30:54.982Z,99.90
2019-05-25T10:33:39.035Z,99.90
2019-05-25T10:36:11.022Z,99.90
2019-05-25T10:38:46.132Z,99.90
2019-05-25T10:41:19.868Z,99.90
2019-05-25T10:43:59.328Z,99.90
2019-05-25T10:46:33.105Z,99.90
2019-05-25T10:49:06.838Z,99.90
2019-05-25T10:51:40.528Z,99.90
2019-05-25T10:54:14.335Z,99.70
2019-05-25T10:56:48.133Z,99.90
2019-05-25T10:59:22.335Z,98.30
2019-05-25T11:01:56.167Z,99.10
2019-05-25T11:04:29.848Z,99.00
2019-05-25T11:07:03.765Z,99.70
2019-05-25T11:09:39.355Z,99.90
2019-05-25T11:12:15.197Z,99.90
2019-05-25T11:14:49.791Z,99.90
2019-05-25T11:17:23.597Z,98.10
2019-05-25T11:19:59.469Z,99.10
2019-05-25T11:22:33.311Z,97.40
2019-05-25T11:25:18.958Z,97.90
2019-05-25T11:27:52.667Z,96.40
2019-05-25T11:30:26.559Z,98.50
2019-05-25T11:33:00.380Z,97.00
2019-05-25T11:35:34.038Z,96.90
2019-05-25T11:38:09.411Z,96.70
2019-05-25T11:40:45.857Z,94.70
2019-05-25T11:43:19.882Z,95.80
2019-05-25T11:45:53.598Z,94.50
2019-05-25T11:48:31.982Z,95.10
2019-05-25T11:51:12.854Z,94.50
2019-05-25T11:53:43.231Z,92.70
2019-05-25T11:56:17.931Z,92.80
2019-05-25T11:58:53.371Z,93.40
2019-05-25T12:01:27.153Z,92.90
2019-05-25T12:04:00.974Z,92.50
2019-05-25T12:06:34.628Z,92.40
2019-05-25T12:09:09.418Z,92.50
2019-05-25T12:11:43.495Z,89.80
2019-05-25T12:14:18.139Z,93.30
2019-05-25T12:16:51.902Z,91.70
2019-05-25T12:19:27.241Z,90.70
2019-05-25T12:22:01.438Z,91.10
2019-05-25T12:24:35.213Z,87.60
2019-05-25T12:27:09.071Z,86.90
2019-05-25T12:29:43.177Z,82.10
2019-05-25T12:32:16.826Z,83.70
2019-05-25T12:34:50.867Z,86.30
2019-05-25T12:37:24.507Z,82.20
2019-05-25T12:39:58.271Z,84.60
2019-05-25T12:42:32.048Z,81.80
2019-05-25T12:45:07.363Z,83.90
2019-05-25T12:47:41.105Z,87.00
2019-05-25T12:50:16.712Z,82.10
2019-05-25T12:52:51.369Z,80.70
2019-05-25T12:55:25.167Z,82.60
2019-05-25T12:58:03.777Z,79.80
2019-05-25T13:00:37.626Z,81.50
2019-05-25T13:03:12.431Z,79.00
2019-05-25T13:05:47.228Z,79.40
2019-05-25T13:08:23.835Z,79.60
2019-05-25T13:10:58.385Z,79.40
2019-05-25T13:13:35.063Z,80.70
2019-05-25T13:16:08.920Z,79.90
2019-05-25T13:18:43.530Z,80.20
2019-05-25T13:21:18.060Z,80.50
2019-05-25T13:23:52.120Z,82.50
2019-05-25T13:26:26.161Z,79.30
2019-05-25T13:28:59.819Z,82.10
2019-05-25T13:31:34.139Z,81.70
2019-05-25T13:34:16.491Z,85.80
2019-05-25T13:36:50.188Z,85.20
2019-05-25T13:39:24.634Z,77.70
2019-05-25T13:41:58.319Z,78.00
2019-05-25T13:44:32.209Z,78.20
2019-05-25T13:47:06.263Z,73.20
2019-05-25T13:49:40.369Z,75.30
2019-05-25T13:52:15.315Z,77.70
2019-05-25T13:54:48.996Z,79.50
2019-05-25T13:57:23.585Z,77.30
2019-05-25T13:59:57.307Z,81.00
2019-05-25T14:02:31.286Z,83.80
2019-05-25T14:05:08.297Z,85.30
2019-05-25T14:07:42.305Z,88.20
2019-05-25T14:10:16.218Z,90.10
2019-05-25T14:12:49.959Z,91.20
2019-05-25T14:15:25.287Z,92.70
2019-05-25T14:17:59.150Z,94.50
2019-05-25T14:20:32.824Z,96.20
2019-05-25T14:23:06.607Z,97.50
2019-05-25T14:25:40.377Z,98.80
2019-05-25T14:28:14.076Z,99.90
2019-05-25T14:30:48.533Z,99.90
2019-05-25T14:33:24.056Z,99.90
2019-05-25T14:35:58.680Z,99.90
2019-05-25T14:38:32.754Z,99.90
2019-05-25T14:41:06.438Z,99.90
2019-05-25T14:43:40.573Z,99.90
2019-05-25T14:46:26.805Z,99.90
2019-05-25T14:48:49.819Z,99.90
2019-05-25T14:51:23.488Z,98.70
2019-05-25T14:53:57.176Z,99.90
2019-05-25T14:56:32.528Z,98.30
2019-05-25T14:59:06.683Z,98.30
2019-05-25T15:01:40.507Z,96.70
2019-05-25T15:04:14.404Z,97.70
2019-05-25T15:06:48.239Z,99.00
2019-05-25T15:09:22.801Z,96.60
2019-05-25T15:11:56.680Z,95.60
2019-05-25T15:14:32.406Z,95.30
2019-05-25T15:17:06.238Z,96.50
2019-05-25T15:19:42.379Z,96.30
2019-05-25T15:22:16.269Z,96.50
2019-05-25T15:24:50.459Z,95.40
2019-05-25T15:27:24.127Z,95.90
2019-05-25T15:29:57.953Z,94.90
2019-05-25T15:32:31.868Z,94.30
2019-05-25T15:35:07.426Z,96.40
2019-05-25T15:37:41.098Z,97.00
2019-05-25T15:40:15.785Z,95.40
2019-05-25T15:42:49.504Z,95.20
2019-05-25T15:45:23.393Z,96.00
2019-05-25T15:47:57.285Z,96.20
2019-05-25T15:50:31.225Z,97.50
2019-05-25T15:53:05.671Z,98.50
2019-05-25T15:55:39.561Z,99.90
2019-05-25T15:58:13.548Z,99.90
2019-05-25T16:00:52.026Z,99.90
2019-05-25T16:03:26.015Z,99.90
2019-05-25T16:06:00.099Z,99.90
2019-05-25T16:08:33.842Z,99.90
2019-05-25T16:11:08.746Z,99.90
2019-05-25T16:13:43.505Z,99.90
2019-05-25T16:16:17.269Z,99.90
2019-05-25T16:18:50.979Z,99.90
2019-05-25T16:21:25.598Z,99.90
2019-05-25T16:23:59.270Z,99.90
2019-05-25T16:26:45.455Z,99.90
2019-05-25T16:29:08.454Z,99.90
2019-05-25T16:31:43.018Z,99.90
2019-05-25T16:34:16.707Z,99.90
2019-05-25T16:36:51.010Z,99.90
2019-05-25T16:39:24.858Z,99.90
2019-05-25T16:41:58.591Z,99.90
2019-05-25T16:44:32.418Z,99.90
2019-05-25T16:47:06.479Z,99.90
2019-05-25T16:49:40.278Z,99.90
2019-05-25T16:52:14.129Z,99.90
2019-05-25T16:54:53.784Z,99.90
2019-05-25T16:57:27.636Z,99.90
2019-05-25T17:00:01.407Z,99.90
2019-05-25T17:02:35.399Z,99.90
2019-05-25T17:05:09.888Z,99.90
2019-05-25T17:07:43.563Z,99.90
2019-05-25T17:10:17.336Z,99.90
2019-05-25T17:12:51.142Z,99.90
2019-05-25T17:15:25.619Z,99.90
2019-05-25T17:17:59.559Z,99.90
2019-05-25T17:20:33.217Z,99.90
2019-05-25T17:23:07.305Z,99.90
2019-05-25T17:25:40.985Z,99.90
2019-05-25T17:28:17.611Z,99.90
2019-05-25T17:30:51.417Z,99.90
2019-05-25T17:33:25.178Z,99.90
2019-05-25T17:35:58.944Z,99.90
2019-05-25T17:38:32.799Z,99.90
2019-05-25T17:41:06.496Z,99.90
2019-05-25T17:43:40.240Z,99.90
2019-05-25T17:46:14.042Z,99.90
2019-05-25T17:48:50.912Z,99.90
2019-05-25T17:51:25.886Z,99.90
2019-05-25T17:53:59.602Z,99.90
2019-05-25T17:56:34.508Z,99.90
2019-05-25T17:59:08.337Z,99.90
2019-05-25T18:01:42.396Z,99.90
2019-05-25T18:04:16.188Z,99.90
2019-05-25T18:06:49.995Z,99.90
2019-05-25T18:09:24.123Z,99.90
2019-05-25T18:11:57.796Z,99.90
2019-05-25T18:14:31.641Z,99.90
2019-05-25T18:17:05.549Z,99.90
2019-05-25T18:19:39.393Z,99.90
2019-05-25T18:22:13.108Z,99.90
2019-05-25T18:24:47.035Z,99.90
2019-05-25T18:27:21.128Z,99.90
2019-05-25T18:29:54.878Z,99.90
2019-05-25T18:32:28.725Z,99.90
2019-05-25T18:35:02.646Z,99.90
2019-05-25T18:37:36.972Z,99.90
2019-05-25T18:40:12.869Z,99.90
2019-05-25T18:42:47.529Z,99.90
2019-05-25T18:45:21.855Z,99.90
2019-05-25T18:47:55.918Z,99.90
2019-05-25T18:50:29.668Z,99.90
2019-05-25T18:53:04.498Z,99.90
2019-05-25T18:55:39.997Z,99.90
2019-05-25T18:58:13.702Z,99.90
2019-05-25T19:00:47.397Z,99.90
2019-05-25T19:03:21.586Z,99.90
2019-05-25T19:05:55.335Z,99.90
2019-05-25T19:08:29.024Z,99.90
2019-05-25T19:11:04.847Z,99.90
2019-05-25T19:13:38.558Z,99.90
2019-05-25T19:16:12.310Z,99.90
2019-05-25T19:18:47.757Z,99.90
2019-05-25T19:21:23.222Z,99.90
2019-05-25T19:23:56.897Z,99.90
2019-05-25T19:26:30.817Z,99.90
2019-05-25T19:29:05.888Z,99.90
2019-05-25T19:31:39.817Z,99.90
2019-05-25T19:34:13.517Z,99.90
2019-05-25T19:36:47.258Z,99.90
2019-05-25T19:39:21.070Z,99.90
2019-05-25T19:41:54.831Z,99.90
2019-05-25T19:44:29.098Z,99.90
2019-05-25T19:47:02.898Z,99.90
2019-05-25T19:49:36.727Z,99.90
2019-05-25T19:52:10.569Z,99.90
2019-05-25T19:54:44.781Z,99.90
2019-05-25T19:57:18.638Z,99.90
2019-05-25T19:59:52.415Z,99.90
2019-05-25T20:02:26.258Z,99.90
2019-05-25T20:05:15.225Z,99.90
2019-05-25T20:07:35.522Z,99.90
2019-05-25T20:10:11.470Z,99.90
2019-05-25T20:12:45.221Z,99.90
2019-05-25T20:15:19.502Z,99.90
2019-05-25T20:17:53.378Z,99.90
2019-05-25T20:20:27.254Z,99.90
2019-05-25T20:23:01.143Z,99.90
2019-05-25T20:25:36.574Z,99.90
2019-05-25T20:28:10.538Z,99.90
2019-05-25T20:30:44.936Z,99.90
2019-05-25T20:33:27.822Z,99.90
2019-05-25T20:35:54.407Z,99.90
2019-05-25T20:38:28.246Z,99.90
2019-05-25T20:41:01.919Z,99.90
2019-05-25T20:43:36.027Z,99.90
2019-05-25T20:46:09.669Z,99.90
2019-05-25T20:48:43.529Z,99.90
2019-05-25T20:51:17.287Z,99.90
2019-05-25T20:53:51.006Z,99.90
2019-05-25T20:56:24.743Z,99.90
2019-05-25T20:58:58.648Z,99.90
2019-05-25T21:01:32.437Z,99.90
2019-05-25T21:04:06.271Z,99.90
2019-05-25T21:06:40.054Z,99.90
2019-05-25T21:09:13.871Z,99.90
2019-05-25T21:11:48.472Z,99.90
2019-05-25T21:14:22.362Z,99.90
2019-05-25T21:16:56.046Z,99.90
2019-05-25T21:19:29.847Z,99.90
2019-05-25T21:22:03.498Z,99.90
2019-05-25T21:24:37.308Z,99.90
2019-05-25T21:27:12.036Z,99.90
2019-05-25T21:29:46.098Z,99.90
2019-05-25T21:32:19.761Z,99.90
2019-05-25T21:34:53.584Z,99.90
2019-05-25T21:37:28.378Z,99.90
2019-05-25T21:40:02.192Z,99.90
2019-05-25T21:42:36.356Z,99.90
2019-05-25T21:45:12.019Z,99.90
2019-05-25T21:47:46.043Z,99.90
2019-05-25T21:50:21.557Z,99.90
2019-05-25T21:52:55.249Z,99.90
2019-05-25T21:55:29.048Z,99.90
2019-05-25T21:58:02.784Z,99.90
2019-05-25T22:00:38.160Z,99.90
2019-05-25T22:03:11.848Z,99.90
2019-05-25T22:05:45.857Z,99.90
2019-05-25T22:08:20.390Z,99.90
2019-05-25T22:10:55.275Z,99.90
2019-05-25T22:13:32.267Z,99.90
2019-05-25T22:16:06.408Z,99.90
2019-05-25T22:18:40.631Z,99.90
2019-05-25T22:21:14.346Z,99.90
2019-05-25T22:23:48.034Z,99.90
2019-05-25T22:26:22.245Z,99.90
2019-05-25T22:28:56.374Z,99.90
2019-05-25T22:31:30.039Z,99.90
2019-05-25T22:34:05.214Z,99.90
2019-05-25T22:36:40.725Z,99.90
2019-05-25T22:39:14.746Z,99.90
2019-05-25T22:41:48.662Z,99.90
2019-05-25T22:44:22.842Z,99.90
2019-05-25T22:46:56.528Z,99.90
2019-05-25T22:49:30.616Z,99.90
2019-05-25T22:52:04.967Z,99.90
2019-05-25T22:54:38.683Z,99.90
2019-05-25T22:57:12.439Z,99.90
2019-05-25T22:59:46.119Z,99.90
2019-05-25T23:02:19.815Z,99.90
2019-05-25T23:04:54.694Z,99.90
2019-05-25T23:07:28.386Z,99.90
2019-05-25T23:10:02.099Z,99.90
2019-05-25T23:12:35.776Z,99.90
2019-05-25T23:15:12.090Z,99.90
2019-05-25T23:17:45.967Z,99.90
2019-05-25T23:20:20.245Z,99.90
2019-05-25T23:22:54.316Z,99.90
2019-05-25T23:25:29.776Z,99.90
2019-05-25T23:28:03.655Z,99.90
2019-05-25T23:30:37.555Z,99.90
2019-05-25T23:33:11.226Z,99.90
2019-05-25T23:35:46.036Z,99.90
2019-05-25T23:38:19.807Z,99.90
2019-05-25T23:40:53.549Z,99.90
2019-05-25T23:43:27.360Z,99.90
2019-05-25T23:46:02.062Z,99.90
2019-05-25T23:48:35.724Z,99.90
2019-05-25T23:51:09.426Z,99.90
2019-05-25T23:53:43.596Z,99.90
2019-05-25T23:56:17.685Z,99.90
2019-05-25T23:58:51.650Z,99.90
